Time;durP1;ratioP1;P1;durP2;ratioP2;P2;SDS_P1;SDS_P2;PMS_P1;PMS_P2;Temp;Humidity;BMP_temperature;BMP_pressure;BME280_temperature;BME280_humidity;BME280_pressure;Samples;Min_cycle;Max_cycle;Signal;HPM_P1;HPM_P2
2023/06/03 00:01:27;;;;;;;0.43;0.40;;;19.80;38.50;;;;;;5046680;28;20165;-80
2023/06/03 00:03:53;;;;;;;0.50;0.50;;;19.70;39.00;;;;;;5079922;28;20255;-81
2023/06/03 00:06:18;;;;;;;0.60;0.50;;;19.80;39.50;;;;;;5079842;28;20149;-81
2023/06/03 00:08:44;;;;;;;0.68;0.68;;;19.70;39.20;;;;;;5062981;28;20173;-80
2023/06/03 00:11:11;;;;;;;0.60;0.60;;;19.80;38.80;;;;;;5062931;28;20157;-80
2023/06/03 00:13:37;;;;;;;0.65;0.40;;;19.70;39.10;;;;;;5097476;28;20149;-80
2023/06/03 00:16:03;;;;;;;0.90;0.57;;;19.70;39.00;;;;;;5063361;28;20160;-81
2023/06/03 00:18:30;;;;;;;0.70;0.70;;;19.80;39.20;;;;;;5097505;28;20180;-80
2023/06/03 00:20:55;;;;;;;0.68;0.68;;;19.70;38.70;;;;;;5063147;28;20168;-80
2023/06/03 00:23:21;;;;;;;0.55;0.50;;;19.70;39.10;;;;;;5097255;28;20526;-81
2023/06/03 00:25:47;;;;;;;0.82;0.70;;;19.70;39.10;;;;;;5079585;28;20177;-80
2023/06/03 00:28:13;;;;;;;1.17;0.60;;;19.70;38.90;;;;;;5079098;28;20149;-80
2023/06/03 00:30:38;;;;;;;0.60;0.52;;;19.80;39.00;;;;;;5097466;28;20157;-80
2023/06/03 00:33:05;;;;;;;0.50;0.50;;;19.70;38.80;;;;;;5078750;28;20267;-80
2023/06/03 00:35:31;;;;;;;0.52;0.50;;;19.70;38.90;;;;;;5062583;28;20161;-81
2023/06/03 00:37:57;;;;;;;1.05;0.55;;;19.70;38.60;;;;;;5079361;28;20180;-81
2023/06/03 00:40:22;;;;;;;0.63;0.63;;;19.80;38.40;;;;;;5097109;28;20227;-81
2023/06/03 00:42:48;;;;;;;0.50;0.50;;;19.70;38.40;;;;;;5096913;28;20157;-81
2023/06/03 00:45:14;;;;;;;0.60;0.60;;;19.70;38.10;;;;;;5079379;28;20526;-80
2023/06/03 00:47:39;;;;;;;0.60;0.60;;;19.70;38.10;;;;;;5078721;28;20204;-81
2023/06/03 00:50:06;;;;;;;0.60;0.60;;;19.80;38.40;;;;;;5096972;28;20570;-80
2023/06/03 00:52:33;;;;;;;1.25;0.60;;;19.70;38.10;;;;;;5062202;28;20202;-81
2023/06/03 00:54:59;;;;;;;0.57;0.57;;;19.70;38.00;;;;;;5096935;28;20619;-81
2023/06/03 00:57:25;;;;;;;0.88;0.70;;;19.70;37.80;;;;;;5096629;28;20267;-81
2023/06/03 00:59:50;;;;;;;0.75;0.75;;;19.70;37.80;;;;;;5096494;28;20157;-80
2023/06/03 01:02:17;;;;;;;0.50;0.40;;;19.70;37.80;;;;;;5078604;28;20165;-81
2023/06/03 01:04:45;;;;;;;0.40;0.40;;;19.70;37.90;;;;;;5078623;28;20187;-81
2023/06/03 01:07:16;;;;;;;1.00;0.68;;;19.70;37.80;;;;;;5062977;28;20177;-81
2023/06/03 01:10:08;;;;;;;0.50;0.50;;;19.80;37.90;;;;;;5062281;28;20226;-80
2023/06/03 01:12:43;;;;;;;0.80;0.68;;;19.70;37.80;;;;;;5096706;28;20638;-80
2023/06/03 01:15:11;;;;;;;0.65;0.65;;;19.70;37.80;;;;;;5078398;28;20156;-80
2023/06/03 01:17:39;;;;;;;0.60;0.55;;;19.70;37.80;;;;;;5078800;28;20180;-80
2023/06/03 01:20:09;;;;;;;0.70;0.60;;;19.80;37.90;;;;;;5078433;28;20176;-81
2023/06/03 01:22:40;;;;;;;1.40;0.70;;;19.70;37.90;;;;;;5078690;28;20164;-81
2023/06/03 01:25:08;;;;;;;0.50;0.50;;;19.70;37.90;;;;;;5078806;28;20152;-81
2023/06/03 01:27:34;;;;;;;0.57;0.57;;;19.70;37.90;;;;;;5078146;28;20203;-80
2023/06/03 01:29:59;;;;;;;0.65;0.65;;;19.70;38.00;;;;;;5078302;28;20176;-80
2023/06/03 01:32:25;;;;;;;0.73;0.50;;;19.70;38.00;;;;;;5077758;28;20224;-80
2023/06/03 01:34:52;;;;;;;0.82;0.60;;;19.70;38.10;;;;;;5096232;28;20208;-80
2023/06/03 01:37:18;;;;;;;1.20;0.80;;;19.70;38.00;;;;;;5096139;28;20647;-80
2023/06/03 01:39:43;;;;;;;0.70;0.70;;;19.60;38.00;;;;;;5096184;28;20152;-80
2023/06/03 01:42:10;;;;;;;0.63;0.60;;;19.70;38.70;;;;;;5061483;28;20523;-81
2023/06/03 01:44:36;;;;;;;0.43;0.43;;;19.60;38.00;;;;;;5078152;28;20149;-80
2023/06/03 01:47:02;;;;;;;0.65;0.43;;;19.70;38.20;;;;;;5077812;28;20626;-81
2023/06/03 01:49:31;;;;;;;0.75;0.50;;;19.70;38.20;;;;;;5061365;28;20157;-80
2023/06/03 01:51:58;;;;;;;0.50;0.50;;;19.70;38.20;;;;;;5078284;28;20187;-80
2023/06/03 01:54:25;;;;;;;0.52;0.50;;;19.70;38.10;;;;;;5096112;28;20198;-80
2023/06/03 01:56:52;;;;;;;0.88;0.70;;;19.70;38.20;;;;;;5095879;28;20188;-80
2023/06/03 01:59:22;;;;;;;0.68;0.60;;;19.70;38.90;;;;;;5077821;28;20173;-80
2023/06/03 02:01:51;;;;;;;0.60;0.60;;;19.60;38.20;;;;;;5077404;28;20157;-81
2023/06/03 02:04:16;;;;;;;0.60;0.60;;;19.70;38.20;;;;;;5095861;28;20198;-80
2023/06/03 02:06:48;;;;;;;0.50;0.50;;;19.70;38.30;;;;;;5095703;28;20152;-79
2023/06/03 02:09:13;;;;;;;0.90;0.50;;;19.70;38.30;;;;;;5077748;28;20199;-80
2023/06/03 02:11:43;;;;;;;0.63;0.63;;;19.70;38.30;;;;;;5060497;28;20188;-80
2023/06/03 02:14:10;;;;;;;0.85;0.70;;;19.60;38.20;;;;;;5061186;28;20199;-81
2023/06/03 02:16:35;;;;;;;0.60;0.60;;;19.60;38.20;;;;;;5095858;28;20611;-79
2023/06/03 02:19:04;;;;;;;0.50;0.50;;;19.70;38.30;;;;;;5077631;28;20168;-81
2023/06/03 02:21:30;;;;;;;0.50;0.50;;;19.70;38.30;;;;;;5095742;28;20240;-80
2023/06/03 02:23:56;;;;;;;0.82;0.60;;;19.60;38.30;;;;;;5060662;28;20188;-80
2023/06/03 02:26:22;;;;;;;0.50;0.50;;;19.70;38.30;;;;;;5077064;28;20255;-80
2023/06/03 02:28:47;;;;;;;0.60;0.60;;;19.70;38.30;;;;;;5077490;28;20637;-80
2023/06/03 02:31:13;;;;;;;0.50;0.50;;;19.70;39.10;;;;;;5095574;28;20145;-80
2023/06/03 02:33:39;;;;;;;0.52;0.52;;;19.70;38.30;;;;;;5060214;28;20223;-80
2023/06/03 02:36:06;;;;;;;0.70;0.70;;;19.60;38.40;;;;;;5094965;28;20157;-80
2023/06/03 02:38:31;;;;;;;0.65;0.60;;;19.60;38.40;;;;;;5077481;28;20188;-80
2023/06/03 02:40:57;;;;;;;0.60;0.60;;;19.70;38.40;;;;;;5060421;28;20567;-79
2023/06/03 02:43:23;;;;;;;0.85;0.60;;;19.70;38.40;;;;;;5077383;28;20164;-80
2023/06/03 02:45:48;;;;;;;0.50;0.50;;;19.60;38.40;;;;;;5095414;28;20152;-80
2023/06/03 02:48:14;;;;;;;0.60;0.60;;;19.70;38.50;;;;;;5077175;28;20160;-80
2023/06/03 02:50:40;;;;;;;0.75;0.60;;;19.60;38.40;;;;;;5077125;28;20550;-80
2023/06/03 02:53:07;;;;;;;0.40;0.40;;;19.60;38.50;;;;;;5076869;28;20191;-82
2023/06/03 02:55:33;;;;;;;0.82;0.52;;;19.60;38.50;;;;;;5076975;28;20196;-82
2023/06/03 02:57:59;;;;;;;0.63;0.60;;;19.60;38.40;;;;;;5076710;28;20224;-80
2023/06/03 03:00:25;;;;;;;0.50;0.50;;;19.60;38.50;;;;;;5093585;28;20195;-80
2023/06/03 03:02:52;;;;;;;0.47;0.47;;;19.60;38.50;;;;;;5094773;28;20623;-79
2023/06/03 03:05:19;;;;;;;0.50;0.50;;;19.60;38.50;;;;;;5077106;28;20206;-80
2023/06/03 03:07:46;;;;;;;0.60;0.60;;;19.60;38.50;;;;;;5094577;28;20153;-80
2023/06/03 03:10:11;;;;;;;0.60;0.60;;;19.60;38.50;;;;;;5077234;28;20157;-80
2023/06/03 03:12:37;;;;;;;0.65;0.65;;;19.60;38.50;;;;;;5076492;28;20175;-80
2023/06/03 03:15:03;;;;;;;0.60;0.60;;;19.60;38.50;;;;;;5077049;28;20161;-79
2023/06/03 03:17:28;;;;;;;1.27;0.65;;;19.60;38.60;;;;;;5065782;28;20566;-79
2023/06/03 03:19:54;;;;;;;0.52;0.50;;;19.60;38.70;;;;;;5082525;28;20149;-79
2023/06/03 03:22:20;;;;;;;0.60;0.60;;;19.60;38.70;;;;;;5082327;28;20229;-81
2023/06/03 03:24:45;;;;;;;0.50;0.50;;;19.60;39.30;;;;;;5086716;28;20179;-80
2023/06/03 03:27:11;;;;;;;0.50;0.40;;;19.60;38.70;;;;;;5086759;28;20619;-80
2023/06/03 03:29:37;;;;;;;0.88;0.68;;;19.60;38.70;;;;;;5086791;28;20228;-79
2023/06/03 03:32:07;;;;;;;0.52;0.52;;;19.60;38.70;;;;;;5105907;28;20208;-79
2023/06/03 03:34:36;;;;;;;0.40;0.40;;;19.60;38.70;;;;;;5086608;28;20180;-82
2023/06/03 03:37:04;;;;;;;0.60;0.50;;;19.60;38.70;;;;;;5102323;28;20199;-78
2023/06/03 03:39:30;;;;;;;0.52;0.52;;;19.60;38.80;;;;;;5085456;28;20202;-81
2023/06/03 03:41:56;;;;;;;0.60;0.60;;;19.60;38.80;;;;;;5085027;28;20157;-80
2023/06/03 03:44:22;;;;;;;0.65;0.55;;;19.70;38.80;;;;;;5102880;28;20153;-82
2023/06/03 03:46:51;;;;;;;0.70;0.60;;;19.60;38.80;;;;;;5084561;28;20580;-81
2023/06/03 03:49:19;;;;;;;1.05;0.68;;;19.60;38.80;;;;;;5083816;28;20200;-81
2023/06/03 03:51:44;;;;;;;0.50;0.50;;;19.60;38.80;;;;;;5101692;28;20179;-82
2023/06/03 03:54:10;;;;;;;0.57;0.57;;;19.60;38.90;;;;;;5101558;28;20207;-81
2023/06/03 03:56:36;;;;;;;1.15;0.80;;;19.60;38.90;;;;;;5066565;28;20750;-81
2023/06/03 03:59:01;;;;;;;0.75;0.50;;;19.60;38.80;;;;;;5083452;28;20160;-80
2023/06/03 04:01:28;;;;;;;1.17;0.60;;;19.60;38.90;;;;;;5100844;28;20145;-82
2023/06/03 04:03:55;;;;;;;0.43;0.43;;;19.60;39.50;;;;;;5082794;28;20228;-81
2023/06/03 04:06:36;;;;;;;0.55;0.55;;;19.60;38.80;;;;;;5066311;28;20164;-83
2023/06/03 04:09:03;;;;;;;0.85;0.55;;;19.60;38.80;;;;;;5082995;28;20161;-83
2023/06/03 04:11:30;;;;;;;0.70;0.50;;;19.70;38.80;;;;;;5065591;28;20149;-83
2023/06/03 04:13:58;;;;;;;0.70;0.68;;;19.70;38.80;;;;;;5082254;28;20214;-82
2023/06/03 04:16:48;;;;;;;0.50;0.50;;;19.70;38.80;;;;;;5065515;28;20559;-83
2023/06/03 04:19:18;;;;;;;0.95;0.65;;;19.70;38.80;;;;;;5085314;28;20149;-83
2023/06/03 04:21:44;;;;;;;0.43;0.43;;;19.70;38.70;;;;;;5099531;28;20223;-82
2023/06/03 04:24:11;;;;;;;0.88;0.52;;;19.70;39.40;;;;;;5081402;28;20266;-82
2023/06/03 04:26:38;;;;;;;1.08;0.68;;;19.70;38.70;;;;;;5065656;28;20199;-83
2023/06/03 04:29:04;;;;;;;1.13;0.68;;;19.70;38.60;;;;;;5081381;28;20149;-82
2023/06/03 04:31:30;;;;;;;0.63;0.60;;;19.70;38.60;;;;;;5080901;28;20515;-82
2023/06/03 04:33:56;;;;;;;0.73;0.60;;;19.80;38.70;;;;;;5064389;28;20216;-81
2023/06/03 04:36:21;;;;;;;0.65;0.65;;;19.80;38.70;;;;;;5080688;28;20179;-82
2023/06/03 04:38:48;;;;;;;0.60;0.60;;;19.80;38.60;;;;;;5081114;28;20235;-81
2023/06/03 04:41:15;;;;;;;1.45;0.70;;;19.80;38.60;;;;;;5080845;28;20148;-84
2023/06/03 04:43:43;;;;;;;0.68;0.68;;;19.80;38.60;;;;;;5081360;28;20153;-83
2023/06/03 04:46:10;;;;;;;0.77;0.50;;;19.80;38.60;;;;;;5064518;28;20153;-83
2023/06/03 04:48:36;;;;;;;0.50;0.50;;;19.80;38.60;;;;;;5098674;28;20578;-83
2023/06/03 04:51:07;;;;;;;1.38;0.80;;;19.80;38.60;;;;;;5080968;28;20198;-81
2023/06/03 04:53:33;;;;;;;0.60;0.40;;;19.80;38.60;;;;;;5065069;28;20258;-83
2023/06/03 04:56:02;;;;;;;0.60;0.60;;;19.80;38.60;;;;;;5080602;28;20211;-83
2023/06/03 04:58:27;;;;;;;0.80;0.52;;;19.80;38.60;;;;;;5080075;28;20196;-82
2023/06/03 05:00:53;;;;;;;0.70;0.63;;;19.80;39.30;;;;;;5080682;28;20164;-83
2023/06/03 05:03:19;;;;;;;0.45;0.43;;;19.90;38.60;;;;;;5063230;28;20161;-84
2023/06/03 05:05:44;;;;;;;0.50;0.50;;;19.90;38.60;;;;;;5063179;28;20163;-83
2023/06/03 05:08:10;;;;;;;0.75;0.50;;;19.90;38.60;;;;;;5079848;28;20576;-83
2023/06/03 05:10:36;;;;;;;0.60;0.50;;;19.90;38.50;;;;;;5063200;28;20175;-84
2023/06/03 05:13:03;;;;;;;0.60;0.55;;;19.90;38.50;;;;;;5079502;28;20255;-81
2023/06/03 05:15:28;;;;;;;0.65;0.60;;;19.90;38.50;;;;;;5079797;28;20160;-82
2023/06/03 05:17:54;;;;;;;0.63;0.60;;;19.90;38.50;;;;;;5097715;28;20180;-83
2023/06/03 05:20:20;;;;;;;0.50;0.50;;;20.00;38.50;;;;;;5046249;28;20532;-82
2023/06/03 05:22:45;;;;;;;0.68;0.57;;;20.00;38.50;;;;;;5079626;28;20179;-81
2023/06/03 05:25:12;;;;;;;0.52;0.52;;;20.00;38.40;;;;;;5079740;28;20161;-82
2023/06/03 05:27:37;;;;;;;0.57;0.57;;;19.90;38.40;;;;;;5079483;28;20240;-83
2023/06/03 05:30:03;;;;;;;0.60;0.50;;;20.00;38.40;;;;;;5062663;28;20203;-82
2023/06/03 05:32:29;;;;;;;1.20;0.50;;;20.00;38.40;;;;;;5080898;28;20574;-81
2023/06/03 05:34:55;;;;;;;0.50;0.50;;;20.00;38.50;;;;;;5096817;28;20176;-80
2023/06/03 05:37:21;;;;;;;0.90;0.68;;;20.00;38.40;;;;;;5097026;28;20187;-83
2023/06/03 05:39:48;;;;;;;0.40;0.40;;;20.10;38.30;;;;;;5079247;28;20160;-81
2023/06/03 05:42:13;;;;;;;1.10;0.50;;;20.10;38.20;;;;;;5096526;28;20157;-81
2023/06/03 05:44:39;;;;;;;0.60;0.55;;;20.20;38.20;;;;;;5096872;28;20161;-80
2023/06/03 05:47:05;;;;;;;0.57;0.52;;;20.10;38.10;;;;;;5077730;28;20255;-82
2023/06/03 05:49:30;;;;;;;0.60;0.50;;;20.00;38.20;;;;;;5078828;28;20165;-83
2023/06/03 05:51:56;;;;;;;0.77;0.70;;;20.00;38.30;;;;;;5078483;28;20234;-81
2023/06/03 05:54:21;;;;;;;0.73;0.73;;;20.10;38.30;;;;;;5096535;28;20646;-81
2023/06/03 05:56:48;;;;;;;0.60;0.50;;;20.10;38.30;;;;;;5078398;28;20257;-81
2023/06/03 05:59:14;;;;;;;0.63;0.50;;;20.10;38.30;;;;;;5078928;28;20153;-81
2023/06/03 06:01:40;;;;;;;0.50;0.50;;;20.10;38.30;;;;;;5096983;28;20149;-80
2023/06/03 06:04:06;;;;;;;0.80;0.60;;;20.10;38.30;;;;;;5096297;28;20283;-81
2023/06/03 06:06:32;;;;;;;0.60;0.60;;;20.10;38.30;;;;;;5078024;28;20203;-82
2023/06/03 06:08:57;;;;;;;0.55;0.55;;;20.10;38.20;;;;;;5078270;28;20619;-82
2023/06/03 06:11:23;;;;;;;0.50;0.50;;;20.10;38.20;;;;;;5077719;28;20631;-81
2023/06/03 06:13:49;;;;;;;0.70;0.50;;;20.10;38.20;;;;;;5077799;28;20623;-82
2023/06/03 06:16:15;;;;;;;0.50;0.50;;;20.20;38.20;;;;;;5077812;28;20161;-83
2023/06/03 06:18:42;;;;;;;0.90;0.60;;;20.20;38.10;;;;;;5061192;28;20196;-81
2023/06/03 06:21:08;;;;;;;0.57;0.50;;;20.20;38.10;;;;;;5094279;28;20149;-83
2023/06/03 06:23:34;;;;;;;0.43;0.43;;;20.20;38.00;;;;;;5061219;28;20676;-82
2023/06/03 06:26:00;;;;;;;0.52;0.52;;;20.30;37.90;;;;;;5095328;28;20157;-83
2023/06/03 06:28:26;;;;;;;0.90;0.52;;;20.30;38.00;;;;;;5077527;28;20161;-81
2023/06/03 06:30:54;;;;;;;0.60;0.60;;;20.30;37.90;;;;;;5044298;28;20744;-83
2023/06/03 06:33:20;;;;;;;0.47;0.47;;;20.30;37.90;;;;;;5060718;28;20228;-81
2023/06/03 06:35:46;;;;;;;0.63;0.50;;;20.40;37.90;;;;;;5077707;28;20157;-81
2023/06/03 06:38:11;;;;;;;0.95;0.50;;;20.40;37.80;;;;;;5095502;28;20184;-81
2023/06/03 06:40:40;;;;;;;0.68;0.63;;;20.40;37.70;;;;;;5077660;28;20665;-83
2023/06/03 06:43:06;;;;;;;0.60;0.50;;;20.40;37.80;;;;;;5044956;28;20184;-82
2023/06/03 06:45:34;;;;;;;0.70;0.60;;;20.40;37.70;;;;;;5077223;28;20609;-82
2023/06/03 06:48:05;;;;;;;0.57;0.50;;;20.40;37.70;;;;;;5077319;28;20148;-81
2023/06/03 06:50:45;;;;;;;0.90;0.60;;;20.40;37.80;;;;;;5044758;28;20165;-83
2023/06/03 06:53:10;;;;;;;0.47;0.47;;;20.40;37.90;;;;;;5077686;28;20173;-81
2023/06/03 06:55:54;;;;;;;0.88;0.60;;;20.40;37.90;;;;;;5077092;28;20199;-83
2023/06/03 06:58:20;;;;;;;0.85;0.60;;;20.30;37.90;;;;;;5078106;28;20180;-82
2023/06/03 07:00:47;;;;;;;0.30;0.30;;;20.30;38.00;;;;;;5059959;28;20161;-81
2023/06/03 07:03:14;;;;;;;0.80;0.65;;;20.30;38.00;;;;;;5076987;28;20169;-83
2023/06/03 07:05:39;;;;;;;1.02;0.43;;;20.40;38.00;;;;;;5076598;28;20207;-83
2023/06/03 07:08:05;;;;;;;0.85;0.50;;;20.30;38.00;;;;;;5076589;28;20165;-81
2023/06/03 07:10:31;;;;;;;1.70;0.60;;;20.40;38.00;;;;;;5094790;28;20156;-83
2023/06/03 07:12:57;;;;;;;0.50;0.50;;;20.40;37.80;;;;;;5043212;28;20164;-82
2023/06/03 07:15:23;;;;;;;1.42;0.80;;;20.50;37.80;;;;;;5076469;28;20180;-83
2023/06/03 07:17:52;;;;;;;0.50;0.50;;;20.50;37.70;;;;;;5076399;28;20202;-82
2023/06/03 07:20:20;;;;;;;0.50;0.50;;;20.50;37.70;;;;;;5076605;28;20163;-83
2023/06/03 07:22:46;;;;;;;1.23;0.50;;;20.50;37.70;;;;;;5076003;28;20250;-82
2023/06/03 07:25:42;;;;;;;0.40;0.40;;;20.50;37.70;;;;;;5076306;28;20180;-81
2023/06/03 07:28:10;;;;;;;0.40;0.40;;;20.50;37.90;;;;;;5076949;28;20161;-82
2023/06/03 07:30:36;;;;;;;0.70;0.50;;;20.40;37.90;;;;;;5094515;28;20641;-81
2023/06/03 07:33:03;;;;;;;0.90;0.50;;;20.50;37.90;;;;;;5085180;28;20231;-81
2023/06/03 07:35:29;;;;;;;0.50;0.50;;;20.50;37.90;;;;;;5096355;28;20174;-81
2023/06/03 07:37:55;;;;;;;0.63;0.43;;;20.50;37.80;;;;;;5096387;28;20274;-83
2023/06/03 07:40:26;;;;;;;0.50;0.38;;;20.50;37.90;;;;;;5079387;28;20168;-81
2023/06/03 07:42:51;;;;;;;1.08;0.55;;;20.50;38.00;;;;;;5096074;28;20176;-83
2023/06/03 07:45:17;;;;;;;1.40;0.52;;;20.40;38.10;;;;;;5096105;28;20163;-81
2023/06/03 07:47:43;;;;;;;0.50;0.50;;;20.20;38.50;;;;;;5096123;28;20626;-82
2023/06/03 07:50:23;;;;;;;0.50;0.50;;;20.10;38.90;;;;;;5079286;28;20172;-83
2023/06/03 07:52:55;;;;;;;0.50;0.50;;;20.00;39.10;;;;;;5096062;28;20163;-81
2023/06/03 07:55:22;;;;;;;0.80;0.57;;;20.00;39.20;;;;;;5063165;28;20192;-82
2023/06/03 07:57:48;;;;;;;0.40;0.40;;;20.00;39.10;;;;;;5113759;28;20187;-81
2023/06/03 08:00:15;;;;;;;1.98;0.63;;;20.10;39.30;;;;;;5095945;28;20263;-82
2023/06/03 08:02:40;;;;;;;0.63;0.50;;;20.00;39.30;;;;;;5095877;28;20167;-82
2023/06/03 08:05:06;;;;;;;0.35;0.35;;;19.90;39.30;;;;;;5095870;28;20178;-82
2023/06/03 08:07:33;;;;;;;0.60;0.50;;;20.00;39.50;;;;;;5079212;28;20249;-83
2023/06/03 08:09:58;;;;;;;0.60;0.60;;;20.00;39.60;;;;;;5063275;28;20266;-82
2023/06/03 08:12:31;;;;;;;0.40;0.40;;;20.00;39.70;;;;;;5116269;28;20721;-81
2023/06/03 08:14:57;;;;;;;0.50;0.50;;;20.00;39.70;;;;;;5099920;28;20157;-81
2023/06/03 08:17:39;;;;;;;1.23;0.60;;;20.00;39.70;;;;;;5065762;28;20249;-82
2023/06/03 08:20:09;;;;;;;0.50;0.50;;;20.10;39.80;;;;;;5117552;28;20186;-81
2023/06/03 08:22:40;;;;;;;1.02;0.60;;;19.90;39.70;;;;;;5066886;28;20171;-81
2023/06/03 08:25:06;;;;;;;0.63;0.50;;;20.00;39.90;;;;;;5117408;28;20226;-83
2023/06/03 08:27:32;;;;;;;1.85;0.70;;;19.90;40.00;;;;;;5099406;28;20764;-83
2023/06/03 08:29:58;;;;;;;0.60;0.60;;;19.90;40.00;;;;;;5099496;28;20263;-82
2023/06/03 08:32:24;;;;;;;0.77;0.60;;;20.00;39.90;;;;;;5100325;28;20700;-83
2023/06/03 08:34:50;;;;;;;0.40;0.40;;;19.90;40.10;;;;;;5118134;28;20156;-81
2023/06/03 08:37:15;;;;;;;0.50;0.50;;;19.90;40.30;;;;;;5119099;28;20180;-83
2023/06/03 08:39:41;;;;;;;0.50;0.50;;;19.80;40.20;;;;;;5117318;28;20593;-81
2023/06/03 08:42:07;;;;;;;0.50;0.45;;;19.80;40.30;;;;;;5098877;28;20167;-83
2023/06/03 08:44:48;;;;;;;0.50;0.50;;;19.90;40.30;;;;;;5098724;28;20615;-83
2023/06/03 08:47:19;;;;;;;0.50;0.50;;;19.90;40.30;;;;;;5098975;28;20164;-84
2023/06/03 08:50:02;;;;;;;0.60;0.52;;;19.90;40.20;;;;;;5099838;28;20161;-81
2023/06/03 08:52:30;;;;;;;0.57;0.57;;;19.80;40.30;;;;;;5098781;28;20186;-82
2023/06/03 08:54:56;;;;;;;1.40;0.40;;;19.70;40.40;;;;;;5082138;28;20159;-82
2023/06/03 08:57:21;;;;;;;0.47;0.45;;;19.70;40.50;;;;;;5081612;28;20192;-83
2023/06/03 08:59:51;;;;;;;0.82;0.60;;;19.70;40.30;;;;;;5098819;28;20683;-83
2023/06/03 09:02:16;;;;;;;0.50;0.50;;;19.70;40.30;;;;;;5081930;28;20164;-81
2023/06/03 09:04:42;;;;;;;0.50;0.50;;;19.70;40.30;;;;;;5097927;28;20166;-83
2023/06/03 09:07:09;;;;;;;0.52;0.47;;;19.80;40.40;;;;;;5098635;28;20218;-81
2023/06/03 09:09:35;;;;;;;0.32;0.32;;;19.80;40.30;;;;;;5099355;28;20153;-81
2023/06/03 09:12:01;;;;;;;0.40;0.40;;;19.80;40.40;;;;;;5115673;28;20179;-81
2023/06/03 09:14:26;;;;;;;0.98;0.45;;;19.70;40.50;;;;;;5098382;28;20164;-81
2023/06/03 09:16:52;;;;;;;0.77;0.60;;;19.70;40.50;;;;;;5076773;28;20212;-82
2023/06/03 09:19:18;;;;;;;0.55;0.55;;;19.70;40.70;;;;;;5077433;28;20169;-83
2023/06/03 09:21:44;;;;;;;0.60;0.50;;;19.70;40.80;;;;;;5093942;28;20203;-81
2023/06/03 09:24:11;;;;;;;0.57;0.50;;;19.70;40.80;;;;;;5093886;28;20615;-82
2023/06/03 09:26:36;;;;;;;0.40;0.40;;;19.70;40.90;;;;;;5077886;28;20199;-81
2023/06/03 09:29:02;;;;;;;0.60;0.50;;;19.70;40.90;;;;;;5077792;28;20156;-80
2023/06/03 09:31:28;;;;;;;1.02;0.55;;;19.60;40.90;;;;;;5078290;28;20210;-87
2023/06/03 09:33:55;;;;;;;0.57;0.52;;;19.60;41.00;;;;;;5083192;28;20217;-87
2023/06/03 09:36:21;;;;;;;0.70;0.50;;;19.60;41.00;;;;;;5060778;28;20220;-84
2023/06/03 09:38:54;;;;;;;1.10;0.50;;;19.60;41.20;;;;;;5062780;28;20631;-85
2023/06/03 09:41:26;;;;;;;0.60;0.55;;;19.60;41.30;;;;;;5044986;28;20574;-86
2023/06/03 09:43:54;;;;;;;0.50;0.50;;;19.70;41.40;;;;;;5046877;28;20557;-86
2023/06/03 09:46:27;;;;;;;0.57;0.50;;;19.60;41.40;;;;;;5060524;28;20184;-81
2023/06/03 09:48:53;;;;;;;0.60;0.60;;;19.70;41.50;;;;;;5081426;28;20180;-83
2023/06/03 09:51:41;;;;;;;1.48;0.57;;;19.70;41.50;;;;;;5101616;28;20218;-80
2023/06/03 09:54:11;;;;;;;1.70;0.55;;;19.60;41.60;;;;;;5104307;28;20232;-81
2023/06/03 09:56:37;;;;;;;0.50;0.50;;;19.60;41.60;;;;;;5068428;28;20580;-80
2023/06/03 09:59:17;;;;;;;1.42;0.57;;;19.70;41.70;;;;;;5082016;28;20157;-81
2023/06/03 10:01:45;;;;;;;0.50;0.50;;;19.70;41.90;;;;;;5066985;28;20165;-80
2023/06/03 10:04:17;;;;;;;0.70;0.60;;;19.70;41.90;;;;;;5087310;28;20149;-80
2023/06/03 10:06:43;;;;;;;3.33;0.70;;;19.70;42.10;;;;;;5068937;28;20168;-81
2023/06/03 10:09:21;;;;;;;1.13;0.60;;;19.70;41.90;;;;;;5069886;28;20186;-80
2023/06/03 10:11:48;;;;;;;0.95;0.57;;;19.70;42.10;;;;;;5087550;28;20198;-80
2023/06/03 10:14:15;;;;;;;1.00;0.60;;;19.70;42.10;;;;;;5086717;28;20536;-80
2023/06/03 10:17:00;;;;;;;1.08;0.52;;;19.80;42.20;;;;;;5026310;28;20185;-80
2023/06/03 10:19:26;;;;;;;1.13;0.77;;;19.70;42.10;;;;;;5026305;28;20161;-80
2023/06/03 10:21:51;;;;;;;0.80;0.70;;;19.70;42.30;;;;;;5024298;28;20321;-79
2023/06/03 10:24:17;;;;;;;0.70;0.70;;;19.70;42.30;;;;;;5026422;28;20163;-81
2023/06/03 10:26:43;;;;;;;1.48;0.60;;;19.70;42.30;;;;;;5024996;28;20256;-80
2023/06/03 10:29:08;;;;;;;0.80;0.70;;;19.70;42.20;;;;;;5039790;28;20194;-80
2023/06/03 10:31:34;;;;;;;0.55;0.55;;;19.70;42.30;;;;;;5024442;28;20179;-80
2023/06/03 10:34:00;;;;;;;0.85;0.70;;;19.80;42.30;;;;;;5038060;28;20285;-81
2023/06/03 10:36:26;;;;;;;0.77;0.60;;;19.80;42.20;;;;;;5044723;28;20182;-80
2023/06/03 10:38:52;;;;;;;0.60;0.60;;;19.80;42.30;;;;;;5026214;28;20683;-84
2023/06/03 10:41:20;;;;;;;0.88;0.70;;;19.80;42.10;;;;;;5043635;28;20162;-80
2023/06/03 10:43:46;;;;;;;1.75;0.50;;;19.80;42.00;;;;;;5044327;28;20261;-81
2023/06/03 10:46:13;;;;;;;0.80;0.80;;;19.90;42.00;;;;;;5059034;28;20534;-81
2023/06/03 10:48:38;;;;;;;2.78;0.70;;;19.90;41.90;;;;;;5080810;28;20639;-82
2023/06/03 10:51:41;;;;;;;2.00;0.60;;;19.90;41.80;;;;;;5100915;28;20225;-80
2023/06/03 10:54:30;;;;;;;0.93;0.70;;;20.00;41.80;;;;;;5078129;28;20172;-82
2023/06/03 10:57:03;;;;;;;1.67;0.70;;;20.00;41.70;;;;;;5095824;28;20205;-82
2023/06/03 10:59:29;;;;;;;1.17;0.70;;;19.90;41.80;;;;;;5077073;28;20164;-81
2023/06/03 11:02:00;;;;;;;0.80;0.63;;;19.90;41.80;;;;;;5077420;28;20623;-82
2023/06/03 11:04:27;;;;;;;0.98;0.60;;;19.90;42.00;;;;;;5080761;28;20630;-86
2023/06/03 11:06:53;;;;;;;0.65;0.65;;;20.00;42.00;;;;;;5100233;28;20164;-80
2023/06/03 11:09:34;;;;;;;0.70;0.70;;;20.00;41.90;;;;;;5099812;28;20145;-82
2023/06/03 11:12:05;;;;;;;0.65;0.65;;;20.00;41.90;;;;;;5097567;28;20148;-82
2023/06/03 11:14:51;;;;;;;1.30;0.68;;;20.00;41.80;;;;;;5082188;28;20194;-82
2023/06/03 11:17:18;;;;;;;0.80;0.65;;;20.10;41.80;;;;;;5081222;28;20180;-83
2023/06/03 11:19:49;;;;;;;0.70;0.70;;;20.10;41.70;;;;;;5076742;28;20149;-81
2023/06/03 11:22:37;;;;;;;0.70;0.70;;;20.00;41.70;;;;;;5075734;28;20490;-83
2023/06/03 11:25:03;;;;;;;0.90;0.63;;;20.10;41.60;;;;;;5075115;28;20173;-84
2023/06/03 11:27:29;;;;;;;1.10;0.70;;;20.10;41.50;;;;;;5092189;28;20226;-85
2023/06/03 11:29:56;;;;;;;0.70;0.70;;;20.20;41.40;;;;;;5075407;28;20269;-84
2023/06/03 11:32:24;;;;;;;0.70;0.70;;;20.20;41.40;;;;;;5093126;28;20160;-83
2023/06/03 11:34:51;;;;;;;0.65;0.65;;;20.10;41.30;;;;;;5113330;28;20202;-84
2023/06/03 11:37:19;;;;;;;1.05;0.77;;;20.30;41.40;;;;;;5112675;28;20195;-84
2023/06/03 11:40:02;;;;;;;1.55;0.60;;;20.10;41.40;;;;;;5111896;28;20149;-83
2023/06/03 11:42:28;;;;;;;0.90;0.80;;;20.20;41.40;;;;;;5112131;28;20155;-84
2023/06/03 11:44:54;;;;;;;0.70;0.70;;;20.20;41.40;;;;;;5096094;28;20168;-82
2023/06/03 11:47:19;;;;;;;2.35;0.77;;;20.20;41.40;;;;;;5098964;28;20168;-82
2023/06/03 11:49:45;;;;;;;0.75;0.68;;;20.20;41.30;;;;;;5118246;28;20175;-83
2023/06/03 11:52:11;;;;;;;1.02;0.63;;;20.20;41.30;;;;;;5117583;28;20202;-84
2023/06/03 11:54:37;;;;;;;1.08;0.70;;;20.20;41.20;;;;;;5117144;28;20213;-82
2023/06/03 11:57:05;;;;;;;0.95;0.60;;;20.30;41.30;;;;;;5115964;28;20556;-84
2023/06/03 11:59:36;;;;;;;2.05;0.68;;;20.20;41.10;;;;;;5100160;28;20164;-84
2023/06/03 12:02:04;;;;;;;1.17;0.80;;;20.20;41.20;;;;;;5101751;28;20174;-84
2023/06/03 12:04:30;;;;;;;0.63;0.63;;;20.20;41.30;;;;;;5116007;28;20145;-85
2023/06/03 12:06:56;;;;;;;1.52;0.70;;;20.10;41.20;;;;;;5115566;28;20149;-84
2023/06/03 12:09:23;;;;;;;0.55;0.52;;;20.10;41.20;;;;;;5116083;28;20602;-82
2023/06/03 12:11:49;;;;;;;0.75;0.75;;;20.10;41.20;;;;;;5115947;28;20607;-82
2023/06/03 12:14:32;;;;;;;0.88;0.80;;;20.00;41.10;;;;;;5098914;28;20170;-81
2023/06/03 12:17:09;;;;;;;0.90;0.65;;;20.10;41.20;;;;;;5116168;28;20235;-83
2023/06/03 12:19:37;;;;;;;0.88;0.60;;;20.10;41.00;;;;;;5116090;28;20148;-82
2023/06/03 12:22:03;;;;;;;0.90;0.60;;;20.10;41.10;;;;;;5098982;28;20172;-83
2023/06/03 12:24:30;;;;;;;0.75;0.70;;;20.10;41.10;;;;;;5099966;28;20167;-82
2023/06/03 12:26:55;;;;;;;0.60;0.60;;;20.10;41.00;;;;;;5118006;28;20166;-84
2023/06/03 12:29:21;;;;;;;0.77;0.77;;;20.00;41.00;;;;;;5118069;28;20152;-83
2023/06/03 12:32:00;;;;;;;0.80;0.70;;;20.10;41.10;;;;;;5119524;28;20630;-83
2023/06/03 12:34:31;;;;;;;0.80;0.80;;;20.10;41.20;;;;;;5082500;28;20265;-84
2023/06/03 12:36:57;;;;;;;1.35;0.80;;;20.10;41.00;;;;;;5097614;28;20210;-84
2023/06/03 12:39:31;;;;;;;0.80;0.73;;;20.10;41.00;;;;;;5078262;28;20584;-84
2023/06/03 12:41:58;;;;;;;1.10;0.90;;;20.10;41.10;;;;;;5096055;28;20558;-84
2023/06/03 12:44:24;;;;;;;1.00;0.50;;;20.10;41.70;;;;;;5061951;28;20223;-84
2023/06/03 12:47:01;;;;;;;0.73;0.70;;;20.10;41.00;;;;;;5079204;28;20169;-83
2023/06/03 12:49:27;;;;;;;1.15;0.60;;;20.10;41.00;;;;;;5095458;28;20515;-83
2023/06/03 12:51:52;;;;;;;1.05;0.80;;;20.10;41.00;;;;;;5094442;28;20227;-83